Time;durP1;ratioP1;P1;durP2;ratioP2;P2;SDS_P1;SDS_P2;PMS_P1;PMS_P2;Temp;Humidity;BMP_temperature;BMP_pressure;BME280_temperature;BME280_humidity;BME280_pressure;Samples;Min_cycle;Max_cycle;Signal;HPM_P1;HPM_P2
2023/03/07 00:00:33;;;;;;;36.90;19.70;;;;;;;2.53;100.00;99019.56;6328449;22;20045;-94
2023/03/07 00:03:10;;;;;;;41.97;21.23;;;;;;;2.91;100.00;99073.91;6324248;22;20406;-93
2023/03/07 00:06:03;;;;;;;39.88;20.65;;;;;;;3.21;100.00;99115.50;6276812;22;20011;-92
2023/03/07 00:09:08;;;;;;;38.03;20.98;;;;;;;2.66;100.00;99011.25;6298690;22;20015;-93
2023/03/07 00:11:40;;;;;;;38.58;20.40;;;;;;;3.11;100.00;99081.00;6283445;22;20042;-93
2023/03/07 00:14:32;;;;;;;40.10;20.20;;;;;;;3.35;100.00;99108.00;6298002;22;20045;-93
2023/03/07 00:17:46;;;;;;;39.13;20.88;;;;;;;3.36;100.00;99117.56;6332203;22;20030;-92
2023/03/07 00:20:44;;;;;;;39.60;21.10;;;;;;;2.79;100.00;99011.63;6356489;22;20046;-93
2023/03/07 00:23:40;;;;;;;41.17;23.15;;;;;;;3.11;100.00;99055.72;6356143;22;20006;-94
2023/03/07 00:26:31;;;;;;;45.95;23.17;;;;;;;3.37;100.00;99100.94;6336716;22;20007;-94
2023/03/07 00:29:05;;;;;;;41.88;22.92;;;;;;;3.23;100.00;99101.47;6311053;22;20021;-93
2023/03/07 00:31:36;;;;;;;44.25;23.10;;;;;;;2.72;100.00;99046.72;6296262;22;20020;-93
2023/03/07 00:34:06;;;;;;;;;;;;;;;3.07;100.00;99095.97;6279458;22;20398;-92
2023/03/07 00:36:41;;;;;;;48.15;23.83;;;;;;;3.02;100.00;99099.66;6326539;22;19910;-93
2023/03/07 00:39:17;;;;;;;50.78;24.23;;;;;;;2.44;100.00;99002.47;6320668;22;20023;-92
2023/03/07 00:42:23;;;;;;;44.33;23.17;;;;;;;2.74;100.00;99034.47;6328516;22;20022;-94
2023/03/07 00:44:59;;;;;;;45.42;23.95;;;;;;;2.73;100.00;99036.22;6329974;22;20046;-94
2023/03/07 00:56:35;;;;;;;48.53;24.83;;;;;;;2.14;100.00;98973.06;6288923;22;20011;-94
2023/03/07 01:00:01;;;;;;;46.75;24.73;;;;;;;2.19;100.00;98994.66;6290085;22;20094;-93
2023/03/07 01:02:35;;;;;;;52.78;26.13;;;;;;;2.29;100.00;99022.16;6264741;22;20016;-91
2023/03/07 01:05:30;;;;;;;53.15;26.83;;;;;;;2.65;100.00;99079.25;6276890;22;20030;-92
2023/03/07 01:08:40;;;;;;;50.42;24.75;;;;;;;2.72;100.00;99062.41;6286213;22;20027;-94
2023/03/07 01:11:44;;;;;;;50.33;25.75;;;;;;;2.11;100.00;98947.91;6264313;22;20055;-94
2023/03/07 01:14:32;;;;;;;51.55;25.95;;;;;;;2.27;100.00;98966.50;6240728;22;20018;-95
2023/03/07 01:17:30;;;;;;;51.15;26.27;;;;;;;2.50;100.00;98983.09;6270518;22;20019;-93
2023/03/07 01:23:32;;;;;;;51.65;26.27;;;;;;;2.54;100.00;98974.22;6362844;22;20078;-93
2023/03/07 01:26:38;;;;;;;;;;;;;;;;;;;;;
2023/03/07 01:30:06;;;;;;;53.22;26.85;;;;;;;2.14;100.00;98936.50;6246158;22;20024;-94
2023/03/07 01:33:12;;;;;;;49.63;25.40;;;;;;;2.89;100.00;99039.13;6245018;22;20023;-95
2023/03/07 01:36:03;;;;;;;51.75;26.55;;;;;;;2.85;100.00;99042.75;6260228;23;20034;-96
2023/03/07 01:39:11;;;;;;;;;;;;;;;;;;;;;
2023/03/07 01:42:02;;;;;;;48.28;24.85;;;;;;;2.55;100.00;98987.25;6241029;23;20047;-94
2023/03/07 01:45:20;;;;;;;47.90;24.30;;;;;;;2.79;100.00;99037.75;6262570;23;20027;-95
2023/03/07 01:48:15;;;;;;;50.17;25.30;;;;;;;2.45;100.00;98970.19;6283941;22;20080;-95
2023/03/07 01:51:34;;;;;;;51.90;26.33;;;;;;;2.79;100.00;99016.84;6279894;22;20092;-96
2023/03/07 01:54:22;;;;;;;54.35;26.95;;;;;;;2.59;100.00;98974.91;6269007;22;20106;-95
2023/03/07 01:57:26;;;;;;;51.55;25.65;;;;;;;2.72;100.00;98990.06;6277036;22;20102;-96
2023/03/07 02:00:21;;;;;;;54.28;26.83;;;;;;;2.90;100.00;99008.59;6293205;22;20046;-95
2023/03/07 02:03:58;;;;;;;53.33;25.85;;;;;;;2.53;100.00;98949.00;6300775;22;20030;-96
2023/03/07 02:06:50;;;;;;;55.28;27.20;;;;;;;2.27;100.00;98897.75;6317330;22;20061;-96
2023/03/07 02:09:38;;;;;;;55.33;27.30;;;;;;;2.47;100.00;98943.13;6290172;22;20015;-96
2023/03/07 02:12:20;;;;;;;56.83;27.90;;;;;;;2.30;100.00;98900.25;6272491;22;20023;-95
2023/03/07 02:14:51;;;;;;;55.17;26.73;;;;;;;2.93;100.00;98993.66;6269995;22;20075;-95
2023/03/07 02:21:11;;;;;;;52.75;26.27;;;;;;;2.67;100.00;98941.53;6296745;22;20030;-94
2023/03/07 02:24:29;;;;;;;48.90;24.83;;;;;;;2.97;100.00;98986.53;6306513;22;20045;-94
2023/03/07 02:27:10;;;;;;;49.53;24.63;;;;;;;3.01;100.00;98969.81;6309724;22;20023;-93
2023/03/07 02:29:52;;;;;;;48.08;24.77;;;;;;;2.42;100.00;98882.34;6285531;22;20015;-93
2023/03/07 02:32:39;;;;;;;51.28;25.67;;;;;;;2.58;100.00;98893.06;6308936;22;20015;-94
2023/03/07 02:35:19;;;;;;;53.67;26.58;;;;;;;3.02;100.00;98963.66;6263557;22;20103;-94
2023/03/07 02:38:06;;;;;;;53.60;25.05;;;;;;;2.66;100.00;98891.00;6288620;22;20102;-93
2023/03/07 02:40:58;;;;;;;51.05;25.92;;;;;;;2.97;100.00;98923.78;6308910;22;20025;-94
2023/03/07 02:43:37;;;;;;;49.35;24.02;;;;;;;3.01;100.00;98933.19;6288966;22;20332;-93
2023/03/07 02:46:13;;;;;;;50.38;25.88;;;;;;;3.02;100.00;98934.91;6262805;22;20044;-93
2023/03/07 02:48:55;;;;;;;48.72;24.73;;;;;;;3.07;100.00;98952.13;6298118;22;20063;-92
2023/03/07 02:51:28;;;;;;;48.92;25.48;;;;;;;2.46;100.00;98839.53;6280033;22;20020;-94
2023/03/07 02:54:24;;;;;;;50.33;25.48;;;;;;;2.50;100.00;98844.63;6284415;22;20026;-94
2023/03/07 02:57:15;;;;;;;49.05;24.55;;;;;;;2.99;100.00;98908.91;6281129;22;20026;-94
2023/03/07 03:00:30;;;;;;;;;;;;;;;;;;;;;
2023/03/07 03:04:01;;;;;;;44.08;22.98;;;;;;;3.23;100.00;98936.66;6303516;22;20018;-95
2023/03/07 03:06:52;;;;;;;44.25;22.90;;;;;;;2.66;100.00;98840.50;6300851;22;20025;-93
2023/03/07 03:09:43;;;;;;;41.50;22.02;;;;;;;3.13;100.00;98912.66;6276472;22;20023;-93
2023/03/07 03:12:51;;;;;;;42.95;23.85;;;;;;;2.92;100.00;98866.44;6318919;22;20054;-94
2023/03/07 03:15:53;;;;;;;44.55;23.17;;;;;;;2.75;100.00;98827.91;6279124;22;20359;-93
2023/03/07 03:18:43;;;;;;;41.85;22.35;;;;;;;3.07;100.00;98881.50;6303151;22;20026;-93
2023/03/07 03:21:25;;;;;;;40.38;22.48;;;;;;;3.04;100.00;98865.94;6295007;22;20292;-90
2023/03/07 03:24:21;;;;;;;43.00;22.05;;;;;;;2.98;100.00;98860.97;6296621;22;20049;-94
2023/03/07 03:27:23;;;;;;;40.17;23.08;;;;;;;2.96;100.00;98869.78;6265933;22;20473;-92
2023/03/07 03:30:17;;;;;;;39.85;22.52;;;;;;;2.69;100.00;98815.06;6300355;22;20357;-93
2023/03/07 03:33:23;;;;;;;38.40;21.08;;;;;;;3.34;100.00;98910.06;6305904;22;20023;-91
2023/03/07 03:35:58;;;;;;;40.08;21.15;;;;;;;3.35;100.00;98907.38;6303730;22;20059;-91
2023/03/07 03:38:34;;;;;;;42.33;22.83;;;;;;;3.30;100.00;98908.50;6256801;22;20059;-90
2023/03/07 03:41:22;;;;;;;35.15;20.58;;;;;;;2.70;100.00;98810.69;6282292;22;20055;-91
2023/03/07 03:44:15;;;;;;;;;;;;;;;;;;;;;
2023/03/07 03:47:12;;;;;;;39.13;20.15;;;;;;;3.01;100.00;98884.38;6330460;22;20055;-92
2023/03/07 03:49:54;;;;;;;37.63;20.65;;;;;;;3.16;100.00;98901.19;6262967;22;20022;-92
2023/03/07 03:52:58;;;;;;;35.60;19.92;;;;;;;2.85;100.00;98859.75;6325940;22;20022;-93
2023/03/07 03:55:36;;;;;;;35.78;19.23;;;;;;;2.74;100.00;98848.88;6303464;22;20007;-92
2023/03/07 03:58:20;;;;;;;34.40;19.02;;;;;;;2.77;100.00;98844.38;6306130;22;20027;-93
2023/03/07 04:00:58;;;;;;;36.05;19.05;;;;;;;2.70;100.00;98839.44;6280614;22;20038;-91
2023/03/07 04:03:48;;;;;;;36.88;19.63;;;;;;;2.93;100.00;98865.53;6324496;22;20023;-92
2023/03/07 04:06:31;;;;;;;31.35;18.77;;;;;;;2.88;100.00;98872.69;6307171;22;20034;-92
2023/03/07 04:09:14;;;;;;;30.30;18.30;;;;;;;2.95;100.00;98895.09;6296528;22;20055;-91
2023/03/07 04:11:54;;;;;;;32.80;18.27;;;;;;;2.27;100.00;98777.59;6258143;22;20023;-91
2023/03/07 04:14:50;;;;;;;;;;;;;;;2.96;100.00;98886.34;6300768;22;20019;-91
2023/03/07 04:17:46;;;;;;;33.13;17.40;;;;;;;2.43;100.00;98784.78;6276060;22;19953;-92
2023/03/07 04:20:32;;;;;;;30.48;17.15;;;;;;;2.71;100.00;98823.72;6265070;22;20016;-92
2023/03/07 04:23:16;;;;;;;31.38;18.00;;;;;;;2.56;100.00;98798.19;6267914;22;20456;-93
2023/03/07 04:26:00;;;;;;;32.10;17.83;;;;;;;3.06;100.00;98869.34;6268663;22;20030;-94
2023/03/07 04:28:45;;;;;;;30.23;16.98;;;;;;;2.87;100.00;98844.00;6258424;22;20026;-92
2023/03/07 04:31:28;;;;;;;29.13;17.38;;;;;;;2.85;100.00;98844.06;6267656;22;20294;-91
2023/03/07 04:34:09;;;;;;;29.67;17.75;;;;;;;3.00;100.00;98873.97;6271824;22;20016;-92
2023/03/07 04:36:53;;;;;;;30.08;17.40;;;;;;;2.77;100.00;98826.09;6290105;22;20026;-90
2023/03/07 04:39:34;;;;;;;30.15;17.45;;;;;;;2.61;100.00;98787.56;6246140;22;20015;-91
2023/03/07 04:42:32;;;;;;;31.85;17.55;;;;;;;3.11;100.00;98871.78;6264249;22;20015;-92
2023/03/07 04:45:06;;;;;;;30.75;17.73;;;;;;;2.62;100.00;98774.44;6282673;22;20018;-92
2023/03/07 04:48:15;;;;;;;31.20;17.95;;;;;;;2.54;100.00;98754.75;6248246;22;20063;-92
2023/03/07 04:51:06;;;;;;;28.70;16.88;;;;;;;2.88;100.00;98799.50;6292045;22;20020;-94
2023/03/07 04:53:58;;;;;;;29.15;17.02;;;;;;;3.16;100.00;98848.88;6293138;22;20038;-93
2023/03/07 04:56:41;;;;;;;29.58;17.50;;;;;;;3.29;100.00;98857.94;6294804;22;20023;-90
2023/03/07 04:59:26;;;;;;;32.95;18.85;;;;;;;2.93;100.00;98797.56;6289452;22;20018;-91
2023/03/07 05:01:57;;;;;;;31.60;18.52;;;;;;;2.70;100.00;98761.03;6243645;22;20085;-91
2023/03/07 05:05:01;;;;;;;32.10;18.45;;;;;;;3.11;100.00;98848.25;6272816;22;20022;-89
2023/03/07 05:07:54;;;;;;;31.13;18.70;;;;;;;2.89;100.00;98818.66;6296284;22;20008;-92
2023/03/07 05:10:46;;;;;;;33.30;19.15;;;;;;;2.52;100.00;98731.28;6296759;22;20007;-90
2023/03/07 05:13:33;;;;;;;34.72;20.10;;;;;;;3.20;100.00;98834.78;6274117;22;20019;-92
2023/03/07 05:16:08;;;;;;;37.10;20.27;;;;;;;3.21;100.00;98828.63;6265326;22;20083;-92
2023/03/07 05:18:50;;;;;;;35.63;20.17;;;;;;;2.64;100.00;98719.50;6294638;22;20016;-94
2023/03/07 05:21:32;;;;;;;34.78;20.58;;;;;;;3.28;100.00;98826.63;6295957;22;20016;-92
2023/03/07 05:24:19;;;;;;;34.25;19.83;;;;;;;3.34;100.00;98829.81;6269748;22;20003;-92
2023/03/07 05:27:17;;;;;;;36.22;21.13;;;;;;;3.18;100.00;98810.44;6292870;22;20026;-93
2023/03/07 05:30:15;;;;;;;37.17;19.80;;;;;;;3.07;100.00;98789.97;6290073;22;20042;-91
2023/03/07 05:33:06;;;;;;;34.17;19.92;;;;;;;2.91;100.00;98754.94;6293852;22;20042;-90
2023/03/07 05:35:38;;;;;;;33.03;19.60;;;;;;;3.43;100.00;98825.97;6296521;22;20023;-89
2023/03/07 05:38:16;;;;;;;36.30;20.88;;;;;;;3.13;100.00;98762.72;6248162;22;20237;-91
2023/03/07 05:41:10;;;;;;;33.60;20.15;;;;;;;3.15;100.00;98774.78;6274261;22;20015;-91
2023/03/07 05:43:42;;;;;;;36.60;20.20;;;;;;;3.01;100.00;98778.91;6269469;22;20016;-92
2023/03/07 05:46:13;;;;;;;38.10;21.33;;;;;;;3.03;100.00;98796.25;6265465;22;20016;-89
2023/03/07 05:48:48;;;;;;;35.55;20.98;;;;;;;3.20;100.00;98821.69;6265781;22;20030;-93
2023/03/07 05:51:19;;;;;;;37.30;21.05;;;;;;;2.95;100.00;98773.97;6260527;22;20054;-93
2023/03/07 05:54:00;;;;;;;38.35;20.98;;;;;;;2.97;100.00;98759.91;6260050;22;20081;-93
2023/03/07 05:56:47;;;;;;;33.45;20.20;;;;;;;3.29;100.00;98813.47;6258406;22;20012;-92
2023/03/07 05:59:16;;;;;;;37.92;20.98;;;;;;;2.73;100.00;98708.66;6281109;22;20019;-91
2023/03/07 06:04:29;;;;;;;34.55;19.75;;;;;;;2.99;100.00;98746.78;6320095;22;20339;-92
2023/03/07 06:07:11;;;;;;;31.85;18.92;;;;;;;3.39;100.00;98806.06;6290816;22;20022;-92
2023/03/07 06:09:54;;;;;;;33.58;19.58;;;;;;;3.47;100.00;98803.94;6270431;22;20019;-91
2023/03/07 06:12:28;;;;;;;33.50;20.00;;;;;;;3.50;100.00;98806.44;6290491;22;20270;-92
2023/03/07 06:15:01;;;;;;;33.20;19.40;;;;;;;3.55;100.00;98807.09;6215232;22;20447;-93
2023/03/07 06:17:48;;;;;;;35.53;20.33;;;;;;;3.49;100.00;98805.59;6294492;22;20052;-92
2023/03/07 06:20:22;;;;;;;35.20;19.17;;;;;;;3.45;100.00;98790.97;6223447;22;20030;-92
2023/03/07 06:23:00;;;;;;;33.13;19.40;;;;;;;3.32;100.00;98781.06;6316189;22;20025;-91
2023/03/07 06:25:40;;;;;;;31.88;19.38;;;;;;;3.16;100.00;98755.56;6296615;22;20011;-93
2023/03/07 06:28:13;;;;;;;37.75;20.33;;;;;;;3.30;100.00;98769.84;6295381;22;20328;-91
2023/03/07 06:30:49;;;;;;;34.42;19.45;;;;;;;3.53;100.00;98798.47;6291839;22;20042;-90
2023/03/07 06:33:31;;;;;;;32.33;19.20;;;;;;;3.53;100.00;98788.00;6288058;22;20045;-93
2023/03/07 06:36:04;;;;;;;36.35;19.42;;;;;;;3.56;100.00;98806.19;6266700;22;20007;-92
2023/03/07 06:39:19;;;;;;;34.80;18.77;;;;;;;3.37;100.00;98766.03;6297944;22;20011;-92
2023/03/07 06:42:17;;;;;;;36.17;19.35;;;;;;;3.05;100.00;98710.75;6315183;22;20352;-91
2023/03/07 06:44:58;;;;;;;35.88;19.35;;;;;;;3.57;100.00;98794.81;6273622;22;20057;-93
2023/03/07 06:47:57;;;;;;;34.10;19.42;;;;;;;3.74;100.00;98815.84;6324721;22;20026;-91
2023/03/07 06:50:55;;;;;;;34.03;18.80;;;;;;;3.75;100.00;98811.47;6303900;22;20100;-91
2023/03/07 06:54:01;;;;;;;30.23;18.58;;;;;;;3.79;100.00;98815.63;6324665;22;20015;-91
2023/03/07 06:56:50;;;;;;;34.33;19.48;;;;;;;3.84;100.00;98814.50;6307763;22;19999;-91
2023/03/07 06:59:38;;;;;;;34.25;17.88;;;;;;;3.50;100.00;98777.66;6309923;22;20008;-91
2023/03/07 07:02:14;;;;;;;31.88;18.95;;;;;;;3.60;100.00;98799.06;6332175;22;20076;-91
2023/03/07 07:05:02;;;;;;;32.17;18.13;;;;;;;3.74;100.00;98825.47;6330008;22;20022;-92
2023/03/07 07:07:47;;;;;;;35.40;18.60;;;;;;;3.83;100.00;98819.81;6309440;22;20010;-90
2023/03/07 07:10:34;;;;;;;35.35;18.52;;;;;;;3.68;100.00;98794.31;6300941;22;20007;-91
2023/03/07 07:13:14;;;;;;;32.38;19.50;;;;;;;3.75;100.00;98806.22;6304862;22;20007;-92
2023/03/07 07:15:42;;;;;;;32.53;17.42;;;;;;;3.59;100.00;98787.75;6301284;22;20091;-93
2023/03/07 07:18:12;;;;;;;31.25;18.20;;;;;;;3.27;100.00;98725.50;6304032;22;20007;-91
2023/03/07 07:20:55;;;;;;;29.65;17.27;;;;;;;3.99;100.00;98822.59;6306913;22;20023;-92
2023/03/07 07:23:30;;;;;;;32.10;17.17;;;;;;;3.97;100.00;98822.66;6275574;22;20007;-90
2023/03/07 07:26:18;;;;;;;33.47;17.92;;;;;;;3.42;100.00;98716.97;6331075;22;20089;-92
2023/03/07 07:29:06;;;;;;;30.23;17.40;;;;;;;3.35;100.00;98716.38;6272206;22;20019;-94
2023/03/07 07:31:52;;;;;;;30.40;17.13;;;;;;;3.90;100.00;98813.41;6321741;22;20042;-92
2023/03/07 07:34:28;;;;;;;31.65;17.95;;;;;;;4.05;100.00;98819.72;6299101;22;20026;-92
2023/03/07 07:37:13;;;;;;;29.00;17.25;;;;;;;3.79;100.00;98766.72;6289960;22;20037;-92
2023/03/07 07:40:24;;;;;;;29.05;17.40;;;;;;;4.23;100.00;98821.50;6315590;22;20065;-91
2023/03/07 07:43:24;;;;;;;25.33;15.75;;;;;;;4.21;100.00;98807.59;6299766;22;20015;-94
2023/03/07 07:46:30;;;;;;;36.95;17.95;;;;;;;4.31;100.00;98808.88;6322436;22;20026;-93
2023/03/07 07:50:13;;;;;;;26.90;16.35;;;;;;;4.18;100.00;98786.78;5117133;27;20587;-91
2023/03/07 07:53:37;;;;;;;32.08;17.33;;;;;;;3.82;100.00;98721.25;5093137;28;20100;-91
2023/03/07 07:56:10;;;;;;;30.73;17.23;;;;;;;4.37;100.00;98802.50;5092785;28;20048;-91
2023/03/07 07:58:50;;;;;;;;;;;;;;;4.54;100.00;98823.53;5081470;28;20105;-91
2023/03/07 08:01:23;;;;;;;29.42;15.68;;;;;;;4.36;100.00;98788.53;5089904;28;19904;-92
2023/03/07 08:04:18;;;;;;;27.08;15.57;;;;;;;4.68;100.00;98831.56;5211020;22;20036;-91
2023/03/07 08:07:16;;;;;;;28.27;16.83;;;;;;;4.40;100.00;98763.91;5076430;28;20045;-92
2023/03/07 08:09:45;;;;;;;26.60;15.60;;;;;;;4.68;100.00;98820.25;5078993;28;20108;-94
2023/03/07 08:12:21;;;;;;;26.33;15.98;;;;;;;4.41;100.00;98786.53;5077689;28;20045;-90
2023/03/07 08:15:09;;;;;;;27.10;15.70;;;;;;;4.20;100.00;98725.53;5082293;28;20052;-93
2023/03/07 08:23:38;;;;;;;27.50;16.23;;;;;;;4.74;100.00;98781.44;5059485;28;20040;-93
2023/03/07 08:29:22;;;;;;;24.20;14.35;;;;;;;4.39;100.00;98708.94;5042208;28;20057;-91
2023/03/07 08:32:59;;;;;;;30.08;15.90;;;;;;;4.59;100.00;98774.31;5039698;28;20037;-92
2023/03/07 08:36:10;;;;;;;28.42;16.17;;;;;;;4.90;100.00;98802.53;5034921;28;20065;-92
2023/03/07 08:38:52;;;;;;;24.27;15.23;;;;;;;4.54;100.00;98723.91;5035756;28;20080;-92
2023/03/07 08:42:02;;;;;;;26.08;15.57;;;;;;;4.45;100.00;98709.47;5021326;28;20066;-91
2023/03/07 08:53:22;;;;;;;28.45;15.00;;;;;;;5.22;100.00;98777.28;5332583;22;20079;-93
2023/03/07 08:56:34;;;;;;;23.15;15.30;;;;;;;5.36;100.00;98784.47;5082621;28;20063;-91
2023/03/07 08:59:30;;;;;;;26.00;14.00;;;;;;;5.24;100.00;98710.69;5098891;28;20067;-92
2023/03/07 09:02:53;;;;;;;23.60;14.73;;;;;;;5.85;100.00;98773.09;5085751;28;20040;-90
2023/03/07 09:08:43;;;;;;;;;;;;;;;;;;;;;
2023/03/07 09:12:09;;;;;;;20.70;13.30;;;;;;;6.25;96.26;98768.34;5352284;23;20063;-93
2023/03/07 09:15:34;;;;;;;22.33;13.25;;;;;;;6.62;93.22;98777.63;5026927;28;20052;-94
2023/03/07 09:18:29;;;;;;;22.80;14.02;;;;;;;6.78;89.96;98764.44;5589703;22;21553;-93
2023/03/07 09:36:17;;;;;;;18.73;11.57;;;;;;;7.04;79.32;98769.06;4952395;29;20044;-92
2023/03/07 09:39:17;;;;;;;;;;;;;;;;;;;;;
2023/03/07 09:43:01;;;;;;;19.60;11.98;;;;;;;6.91;79.12;98755.78;4949443;28;20039;-94
2023/03/07 09:47:13;;;;;;;;;;;;;;;;;;;;;
2023/03/07 10:02:11;;;;;;;17.10;10.98;;;;;;;6.66;75.96;98705.50;5029770;28;20038;-91
2023/03/07 10:08:21;;;;;;;17.13;10.13;;;;;;;7.10;74.74;98742.38;5393094;23;20046;-94
2023/03/07 10:29:39;;;;;;;16.38;10.85;;;;;;;6.99;71.91;98629.00;4947204;29;20111;-94
2023/03/07 10:32:26;;;;;;;17.98;11.00;;;;;;;7.57;71.15;98712.34;4947920;29;20056;-93
2023/03/07 10:36:03;;;;;;;16.45;10.55;;;;;;;7.31;70.00;98677.91;4947451;29;20036;-95
2023/03/07 10:41:47;;;;;;;17.35;10.63;;;;;;;7.54;70.04;98717.81;5496689;23;20038;-91
2023/03/07 10:54:19;;;;;;;17.30;11.07;;;;;;;7.52;69.30;98691.56;5082973;23;20877;31
2023/03/07 11:01:29;;;;;;;;;;;;;;;;;;;;;
2023/03/07 11:04:29;;;;;;;19.17;9.82;;;;;;;7.04;68.17;98637.47;4914306;29;20120;-94
2023/03/07 11:07:59;;;;;;;;;;;;;;;;;;;;;
2023/03/07 11:11:01;;;;;;;15.80;8.98;;;;;;;7.00;65.71;98617.53;4965250;23;20066;-91
2023/03/07 11:17:51;;;;;;;;;;;;;;;;;;;;;
2023/03/07 11:44:58;;;;;;;13.30;8.02;;;;;;;7.35;61.39;98639.94;5037256;28;20045;-93
2023/03/07 11:51:13;;;;;;;12.55;7.40;;;;;;;7.51;60.07;98631.09;5765758;23;20312;-91
2023/03/07 12:06:35;;;;;;;12.85;8.05;;;;;;;7.62;60.84;98626.81;4981064;28;20063;-92
2023/03/07 12:10:03;;;;;;;12.43;7.35;;;;;;;7.68;59.23;98621.19;4982069;28;20053;-93
2023/03/07 12:13:04;;;;;;;14.40;7.85;;;;;;;7.55;59.69;98629.97;4993305;28;20054;-92
2023/03/07 12:15:40;;;;;;;13.75;7.53;;;;;;;7.34;59.33;98582.09;4977753;28;20038;-92
2023/03/07 12:18:58;;;;;;;12.90;7.85;;;;;;;7.49;59.91;98631.19;5014134;28;20447;-92
2023/03/07 12:21:58;;;;;;;11.70;7.70;;;;;;;7.57;59.61;98614.88;5014462;28;20109;-94
2023/03/07 12:24:53;;;;;;;13.85;7.95;;;;;;;7.43;60.07;98576.25;5011792;28;20057;-92
2023/03/07 12:30:35;;;;;;;13.45;7.70;;;;;;;7.19;59.37;98504.09;5015714;28;20080;-93
2023/03/07 12:33:29;;;;;;;13.13;8.10;;;;;;;7.72;59.25;98603.38;5026767;28;20030;-90
2023/03/07 12:36:37;;;;;;;13.77;7.72;;;;;;;7.78;59.40;98587.19;5010170;28;20045;-92
2023/03/07 12:39:53;;;;;;;10.82;7.30;;;;;;;7.87;59.50;98606.84;5027992;28;20069;-91
2023/03/07 12:42:54;;;;;;;15.30;8.07;;;;;;;7.81;60.16;98588.78;5016230;28;20022;-91
2023/03/07 12:45:49;;;;;;;11.30;8.05;;;;;;;7.90;59.56;98602.19;5028032;28;20324;-93
2023/03/07 12:49:09;;;;;;;13.80;7.22;;;;;;;7.78;60.03;98596.88;5017655;28;20102;-93
2023/03/07 12:52:37;;;;;;;12.43;7.40;;;;;;;7.59;60.40;98574.34;5011051;28;20052;-91
2023/03/07 12:55:49;;;;;;;14.23;7.88;;;;;;;7.65;60.33;98586.28;5007962;28;20118;-92
2023/03/07 12:58:33;;;;;;;13.18;8.10;;;;;;;7.78;60.92;98584.53;5007268;28;20072;-91
2023/03/07 13:01:53;;;;;;;11.52;7.25;;;;;;;7.73;59.46;98576.94;5049860;28;20030;-90
2023/03/07 13:04:36;;;;;;;14.63;7.68;;;;;;;7.63;60.09;98546.00;5017364;28;20038;-92
2023/03/07 13:07:19;;;;;;;11.75;7.40;;;;;;;7.94;58.84;98571.22;4994998;28;20482;-93
2023/03/07 13:10:13;;;;;;;11.32;7.20;;;;;;;7.78;59.63;98534.47;5019283;28;20414;-90
2023/03/07 13:12:57;;;;;;;12.77;7.57;;;;;;;7.78;58.54;98516.03;5018421;28;20379;-91
2023/03/07 13:16:05;;;;;;;13.10;7.60;;;;;;;7.78;58.92;98546.81;5033654;28;20113;-94
2023/03/07 13:19:22;;;;;;;12.85;7.55;;;;;;;8.08;59.03;98569.38;5019558;28;20055;-93
2023/03/07 13:21:57;;;;;;;11.93;7.03;;;;;;;7.76;59.12;98531.09;5010431;28;20029;-92
2023/03/07 13:24:49;;;;;;;12.68;7.30;;;;;;;7.56;60.48;98502.56;5023084;28;20052;-89
2023/03/07 13:28:34;;;;;;;11.98;7.40;;;;;;;8.02;60.56;98563.69;5016173;28;20045;-91
2023/03/07 13:31:30;;;;;;;12.80;7.72;;;;;;;7.94;59.48;98527.25;5016117;28;20038;-92
2023/03/07 13:34:46;;;;;;;11.02;7.25;;;;;;;8.24;59.77;98561.28;5019313;28;20052;-92
2023/03/07 13:38:12;;;;;;;10.75;7.28;;;;;;;8.02;59.88;98540.78;5014327;28;20165;-92
2023/03/07 13:41:04;;;;;;;15.07;8.20;;;;;;;7.55;60.94;98498.25;4939164;29;20059;-92
2023/03/07 13:44:17;;;;;;;11.43;7.63;;;;;;;7.35;61.74;98484.59;4938018;28;20061;-91
2023/03/07 13:46:57;;;;;;;13.23;7.53;;;;;;;7.90;61.53;98567.94;5020279;28;20117;-91
2023/03/07 13:49:43;;;;;;;12.52;7.97;;;;;;;7.43;62.76;98518.31;5031667;28;20053;-92
2023/03/07 13:52:36;;;;;;;12.40;7.65;;;;;;;7.47;63.16;98521.59;5012895;28;20037;-91
2023/03/07 13:55:20;;;;;;;11.85;8.10;;;;;;;7.67;63.72;98547.50;5014640;28;20025;-91
2023/03/07 13:57:56;;;;;;;14.75;7.85;;;;;;;7.81;64.05;98565.91;5031342;28;20037;-92
2023/03/07 14:00:48;;;;;;;12.07;7.72;;;;;;;7.83;64.68;98569.28;5027582;28;20101;-92
2023/03/07 14:03:26;;;;;;;14.13;8.43;;;;;;;7.42;64.64;98473.63;5028833;28;20105;-92
2023/03/07 14:06:30;;;;;;;14.60;8.05;;;;;;;7.94;63.82;98536.97;5024560;28;20046;-92
2023/03/07 14:09:00;;;;;;;12.27;7.95;;;;;;;8.15;64.02;98568.97;4991073;28;20044;-91
2023/03/07 14:15:53;;;;;;;15.27;8.60;;;;;;;7.35;64.84;98473.22;5962783;23;20032;-93
2023/03/07 14:18:56;;;;;;;13.20;7.78;;;;;;;7.85;65.99;98580.59;4974311;28;20047;-93
2023/03/07 14:34:38;;;;;;;15.73;8.88;;;;;;;7.64;68.13;98561.72;4947793;28;20102;-93
2023/03/07 14:37:20;;;;;;;16.38;9.05;;;;;;;7.61;69.17;98564.53;5042501;23;20067;-92
2023/03/07 14:46:26;;;;;;;;;;;;;;;;;;;;;
2023/03/07 14:49:29;;;;;;;15.00;9.43;;;;;;;7.06;71.84;98576.88;4957236;28;20055;-92
2023/03/07 14:52:02;;;;;;;15.63;9.02;;;;;;;7.07;72.15;98594.34;4954380;28;20076;-92
2023/03/07 14:57:42;;;;;;;16.80;9.23;;;;;;;7.17;72.88;98590.19;5587491;23;20049;-93
2023/03/07 15:06:02;;;;;;;17.65;8.55;;;;;;;7.01;72.26;98582.41;4993285;28;20058;-91
2023/03/07 15:08:44;;;;;;;13.73;7.50;;;;;;;7.10;71.66;98604.66;4991439;28;20038;-91
2023/03/07 15:11:45;;;;;;;11.15;7.43;;;;;;;7.10;71.91;98592.34;4977571;28;20053;-93
2023/03/07 15:14:56;;;;;;;10.75;6.97;;;;;;;7.13;72.60;98593.94;4978905;28;20057;-91
2023/03/07 15:18:00;;;;;;;12.00;6.88;;;;;;;7.00;72.76;98541.22;4990971;28;20122;-91
2023/03/07 15:20:44;;;;;;;9.82;6.47;;;;;;;7.21;71.50;98586.44;4988891;28;20034;-90
2023/03/07 15:23:26;;;;;;;11.15;6.65;;;;;;;7.19;71.46;98583.91;4989532;28;20046;-92
2023/03/07 15:26:20;;;;;;;9.73;6.30;;;;;;;7.19;72.32;98585.69;4978913;28;20051;-90
2023/03/07 15:29:08;;;;;;;11.10;7.00;;;;;;;7.11;73.52;98586.16;4976289;28;20070;-92
2023/03/07 15:32:28;;;;;;;10.57;6.20;;;;;;;7.21;72.55;98587.28;4975871;28;20051;-91
2023/03/07 15:35:18;;;;;;;11.13;5.90;;;;;;;7.37;72.08;98580.13;4965126;28;20038;-90
2023/03/07 15:38:25;;;;;;;10.02;5.97;;;;;;;7.37;70.94;98569.59;4971936;28;20081;-91
2023/03/07 15:40:59;;;;;;;9.68;5.72;;;;;;;7.22;70.53;98556.56;4965511;28;20077;-89
2023/03/07 15:43:33;;;;;;;7.72;5.50;;;;;;;7.25;70.52;98575.59;4991542;28;20090;-89
2023/03/07 15:46:19;;;;;;;11.73;6.28;;;;;;;7.06;72.26;98577.72;4976783;28;20057;-90
2023/03/07 15:49:14;;;;;;;11.20;6.82;;;;;;;7.02;73.57;98582.31;4993012;28;20110;-91
2023/03/07 15:52:00;;;;;;;11.20;6.35;;;;;;;7.06;73.92;98577.72;4988948;28;20451;-90
2023/03/07 15:54:39;;;;;;;9.18;6.35;;;;;;;7.04;73.93;98551.47;4975083;28;20042;-89
2023/03/07 15:57:22;;;;;;;11.55;6.85;;;;;;;7.19;73.12;98581.28;4989594;28;20123;-92
2023/03/07 16:00:41;;;;;;;12.95;7.40;;;;;;;6.76;73.79;98540.97;4969272;28;20070;-91
2023/03/07 16:03:34;;;;;;;12.77;6.90;;;;;;;6.83;74.25;98555.41;4982171;28;20043;-91
2023/03/07 16:06:42;;;;;;;12.18;7.05;;;;;;;6.92;74.48;98580.34;4955110;28;20067;-92
2023/03/07 16:09:25;;;;;;;10.20;6.82;;;;;;;6.71;75.31;98557.97;4988030;28;20114;-90
2023/03/07 16:11:59;;;;;;;11.90;6.80;;;;;;;6.87;75.37;98593.78;4973631;28;20113;-91
2023/03/07 16:14:33;;;;;;;10.55;6.97;;;;;;;6.49;74.79;98535.56;4976182;28;20042;-90
2023/03/07 16:17:16;;;;;;;10.13;7.00;;;;;;;6.32;74.70;98509.44;4977956;28;20035;-90
2023/03/07 16:20:25;;;;;;;10.95;7.22;;;;;;;6.30;74.28;98511.31;4973954;28;20050;-92
2023/03/07 16:23:00;;;;;;;12.45;7.35;;;;;;;6.82;73.60;98579.19;4986555;28;20121;-91
2023/03/07 16:25:52;;;;;;;12.68;7.15;;;;;;;6.75;74.01;98585.78;4972437;28;20058;-93
2023/03/07 16:29:00;;;;;;;12.68;7.43;;;;;;;6.54;74.05;98553.72;4977781;28;20053;-93
2023/03/07 16:31:43;;;;;;;11.13;7.20;;;;;;;6.29;74.75;98509.63;4988312;28;20074;-92
2023/03/07 16:35:19;;;;;;;10.00;6.83;;;;;;;6.69;75.61;98585.19;4962875;28;20035;-91
2023/03/07 16:38:16;;;;;;;12.73;7.63;;;;;;;6.65;76.32;98578.41;4989838;28;20490;-92